createdAt,value
2022-10-23T00:01:47.322Z,99212.60
2022-10-23T00:04:22.209Z,99204.00
2022-10-23T00:06:50.465Z,99209.20
2022-10-23T00:09:23.290Z,99210.60
2022-10-23T00:11:52.491Z,99220.40
2022-10-23T00:14:24.539Z,99218.00
2022-10-23T00:16:52.664Z,99221.80
2022-10-23T00:19:20.235Z,99221.00
2022-10-23T00:21:47.774Z,99220.60
2022-10-23T00:24:15.367Z,99221.20
2022-10-23T00:26:42.983Z,99219.20
2022-10-23T00:29:11.772Z,99218.20
2022-10-23T00:31:39.852Z,99221.20
2022-10-23T00:34:08.602Z,99219.00
2022-10-23T00:36:38.003Z,99219.60
2022-10-23T00:39:06.578Z,99224.20
2022-10-23T00:41:34.974Z,99225.00
2022-10-23T00:44:17.712Z,99223.60
2022-10-23T00:46:46.327Z,99233.00
2022-10-23T00:49:14.694Z,99232.20
2022-10-23T00:51:48.720Z,99235.00
2022-10-23T00:54:24.398Z,99236.60
2022-10-23T00:56:58.081Z,99237.40
2022-10-23T00:59:27.052Z,99230.20
2022-10-23T01:01:55.343Z,99226.80
2022-10-23T01:04:24.394Z,99228.40
2022-10-23T01:07:19.688Z,99234.20
2022-10-23T01:10:07.542Z,99231.20
2022-10-23T01:12:46.774Z,99229.00
2022-10-23T01:15:28.912Z,99230.20
2022-10-23T01:18:05.403Z,99236.20
2022-10-23T01:20:46.908Z,99232.60
2022-10-23T01:23:53.280Z,99237.80
2022-10-23T01:26:38.503Z,99241.80
2022-10-23T01:29:36.760Z,99240.00
2022-10-23T01:32:12.552Z,99229.60
2022-10-23T01:34:50.633Z,99232.20
2022-10-23T01:37:35.389Z,99227.80
2022-10-23T01:40:08.912Z,99219.80
2022-10-23T01:42:46.281Z,99223.20
2022-10-23T01:45:25.388Z,99225.20
2022-10-23T01:47:56.036Z,99225.60
2022-10-23T01:50:26.537Z,99224.40
2022-10-23T01:52:54.409Z,99227.20
2022-10-23T01:55:24.617Z,99223.20
2022-10-23T01:57:54.620Z,99225.00
2022-10-23T02:00:22.889Z,99226.80
2022-10-23T02:02:54.406Z,99223.20
2022-10-23T02:05:27.328Z,99217.00
2022-10-23T02:07:55.900Z,99215.40
2022-10-23T02:10:53.926Z,99212.20
2022-10-23T02:13:56.683Z,99211.40
2022-10-23T02:16:47.654Z,99216.60
2022-10-23T02:19:31.272Z,99225.00
2022-10-23T02:22:21.087Z,99224.60
2022-10-23T02:25:14.104Z,99221.40
2022-10-23T02:27:52.145Z,99237.80
2022-10-23T02:30:21.176Z,99242.20
2022-10-23T02:32:54.610Z,99242.20
2022-10-23T02:35:26.311Z,99243.60
2022-10-23T02:38:00.859Z,99252.80
2022-10-23T02:40:41.173Z,99258.40
2022-10-23T02:43:27.475Z,99259.60
2022-10-23T02:46:29.039Z,99262.20
2022-10-23T02:49:05.382Z,99261.20
2022-10-23T02:52:10.584Z,99262.00
2022-10-23T02:54:56.325Z,99262.80
2022-10-23T02:57:32.733Z,99262.40
2022-10-23T03:00:07.678Z,99264.60
2022-10-23T03:02:52.843Z,99260.60
2022-10-23T03:05:26.759Z,99256.60
2022-10-23T03:07:54.593Z,99252.00
2022-10-23T03:10:22.891Z,99253.80
2022-10-23T03:12:50.895Z,99248.20
2022-10-23T03:15:19.307Z,99253.20
2022-10-23T03:17:46.832Z,99256.40
2022-10-23T03:20:14.470Z,99253.40
2022-10-23T03:22:42.314Z,99265.00
2022-10-23T03:25:10.525Z,99264.60
2022-10-23T03:27:38.119Z,99264.20
2022-10-23T03:30:07.873Z,99264.40
2022-10-23T03:32:35.413Z,99265.00
2022-10-23T03:35:04.042Z,99261.80
2022-10-23T03:37:31.639Z,99262.20
2022-10-23T03:39:59.177Z,99260.80
2022-10-23T03:42:26.742Z,99270.00
2022-10-23T03:44:54.304Z,99276.40
2022-10-23T03:47:21.896Z,99273.20
2022-10-23T03:49:49.406Z,99275.80
2022-10-23T03:52:17.061Z,99277.00
2022-10-23T03:54:44.684Z,99275.00
2022-10-23T03:57:12.538Z,99278.00
2022-10-23T03:59:40.072Z,99272.60
2022-10-23T04:02:07.712Z,99268.40
2022-10-23T04:04:35.553Z,99267.80
2022-10-23T04:07:03.121Z,99268.40
2022-10-23T04:09:30.717Z,99268.00
2022-10-23T04:11:58.262Z,99265.00
2022-10-23T04:14:26.624Z,99257.40
2022-10-23T04:16:54.268Z,99261.60
2022-10-23T04:19:21.775Z,99256.60
2022-10-23T04:21:49.348Z,99263.60
2022-10-23T04:24:17.000Z,99266.00
2022-10-23T04:26:44.561Z,99267.00
2022-10-23T04:29:12.157Z,99261.60
2022-10-23T04:31:39.791Z,99258.60
2022-10-23T04:34:07.462Z,99268.40
2022-10-23T04:36:35.621Z,99271.60
2022-10-23T04:39:03.487Z,99264.40
2022-10-23T04:41:31.121Z,99266.60
2022-10-23T04:43:58.776Z,99273.20
2022-10-23T04:46:26.394Z,99276.00
2022-10-23T04:48:53.934Z,99277.00
2022-10-23T04:51:21.635Z,99274.20
2022-10-23T04:53:49.353Z,99278.60
2022-10-23T04:56:17.135Z,99275.80
2022-10-23T04:58:45.557Z,99277.00
2022-10-23T05:01:15.407Z,99276.20
2022-10-23T05:03:44.099Z,99272.60
2022-10-23T05:06:11.661Z,99271.20
2022-10-23T05:08:39.226Z,99274.00
2022-10-23T05:11:06.789Z,99273.20
2022-10-23T05:13:35.347Z,99277.00
2022-10-23T05:16:02.970Z,99273.40
2022-10-23T05:18:40.748Z,99282.40
2022-10-23T05:21:28.259Z,99283.20
2022-10-23T05:23:55.961Z,99282.60
2022-10-23T05:26:23.658Z,99282.40
2022-10-23T05:28:51.327Z,99280.00
2022-10-23T05:31:21.183Z,99281.40
2022-10-23T05:33:49.217Z,99280.80
2022-10-23T05:36:17.051Z,99285.80
2022-10-23T05:38:45.865Z,99286.40
2022-10-23T05:41:13.482Z,99288.40
2022-10-23T05:43:41.017Z,99290.60
2022-10-23T05:46:09.665Z,99295.20
2022-10-23T05:48:37.650Z,99295.20
2022-10-23T05:51:11.699Z,99300.20
2022-10-23T05:53:41.791Z,99299.80
2022-10-23T05:56:10.146Z,99303.20
2022-10-23T05:58:38.533Z,99311.00
2022-10-23T06:01:12.610Z,99310.00
2022-10-23T06:03:40.716Z,99311.00
2022-10-23T06:06:08.358Z,99313.80
2022-10-23T06:08:36.046Z,99319.40
2022-10-23T06:11:10.702Z,99326.60
2022-10-23T06:13:38.959Z,99331.40
2022-10-23T06:16:16.917Z,99331.40
2022-10-23T06:18:48.630Z,99333.60
2022-10-23T06:21:17.441Z,99339.60
2022-10-23T06:23:46.857Z,99341.60
2022-10-23T06:26:17.683Z,99342.00
2022-10-23T06:28:45.867Z,99335.40
2022-10-23T06:31:19.173Z,99335.20
2022-10-23T06:33:46.837Z,99336.80
2022-10-23T06:36:14.312Z,99336.40
2022-10-23T06:38:42.025Z,99337.40
2022-10-23T06:41:22.557Z,99332.60
2022-10-23T06:43:51.713Z,99332.60
2022-10-23T06:46:20.011Z,99336.40
2022-10-23T06:48:47.681Z,99334.80
2022-10-23T06:51:18.067Z,99337.60
2022-10-23T06:53:45.932Z,99334.60
2022-10-23T06:56:13.523Z,99331.60
2022-10-23T06:58:41.749Z,99322.80
2022-10-23T07:01:13.583Z,99331.60
2022-10-23T07:03:41.306Z,99339.20
2022-10-23T07:06:10.775Z,99328.40
2022-10-23T07:08:39.212Z,99329.20
2022-10-23T07:11:10.431Z,99339.20
2022-10-23T07:13:39.712Z,99337.80
2022-10-23T07:16:20.411Z,99339.60
2022-10-23T07:18:53.426Z,99336.20
2022-10-23T07:21:21.073Z,99342.20
2022-10-23T07:23:48.696Z,99339.00
2022-10-23T07:26:17.011Z,99339.80
2022-10-23T07:28:48.308Z,99350.20
2022-10-23T07:31:16.450Z,99347.80
2022-10-23T07:33:44.063Z,99353.00
2022-10-23T07:36:12.174Z,99353.40
2022-10-23T07:38:39.860Z,99345.60
2022-10-23T07:41:10.172Z,99333.80
2022-10-23T07:43:40.201Z,99340.00
2022-10-23T07:46:09.925Z,99345.60
2022-10-23T07:48:39.203Z,99346.20
2022-10-23T07:51:14.652Z,99346.60
2022-10-23T07:53:43.635Z,99352.20
2022-10-23T07:56:17.324Z,99346.80
2022-10-23T07:58:45.057Z,99351.20
2022-10-23T08:01:20.386Z,99346.40
2022-10-23T08:03:48.520Z,99338.40
2022-10-23T08:06:16.597Z,99339.40
2022-10-23T08:11:15.394Z,99333.60
2022-10-23T08:13:44.289Z,99335.20
2022-10-23T08:16:11.989Z,99329.80
2022-10-23T08:18:41.394Z,99337.40
2022-10-23T08:21:10.205Z,99338.40
2022-10-23T08:23:38.787Z,99340.20
2022-10-23T08:26:08.118Z,99342.60
2022-10-23T08:28:36.430Z,99339.40
2022-10-23T08:31:22.673Z,99337.60
2022-10-23T08:33:50.811Z,99339.20
2022-10-23T08:36:22.322Z,99340.80
2022-10-23T08:38:53.728Z,99337.60
2022-10-23T08:41:35.154Z,99341.00
2022-10-23T08:44:19.490Z,99349.00
2022-10-23T08:47:08.274Z,99347.40
2022-10-23T08:49:49.401Z,99348.20
2022-10-23T08:52:52.576Z,99347.80
2022-10-23T08:55:35.159Z,99345.00
2022-10-23T08:58:16.701Z,99349.60
2022-10-23T09:00:46.993Z,99346.60
2022-10-23T09:03:14.694Z,99345.00
2022-10-23T09:06:15.389Z,99346.40
2022-10-23T09:08:59.428Z,99353.00
2022-10-23T09:11:36.157Z,99353.80
2022-10-23T09:14:30.424Z,99350.60
2022-10-23T09:17:05.871Z,99354.20
2022-10-23T09:19:33.662Z,99353.40
2022-10-23T09:22:01.665Z,99351.20
2022-10-23T09:24:33.500Z,99351.40
2022-10-23T09:27:01.154Z,99349.60
2022-10-23T09:29:36.039Z,99349.80
2022-10-23T09:32:06.867Z,99358.60
2022-10-23T09:34:35.432Z,99361.80
2022-10-23T09:37:22.353Z,99353.20
2022-10-23T09:40:02.108Z,99352.00
2022-10-23T09:42:29.797Z,99355.20
2022-10-23T09:44:57.757Z,99356.60
2022-10-23T09:47:26.035Z,99361.00
2022-10-23T09:49:57.290Z,99358.00
2022-10-23T09:52:35.701Z,99376.60
2022-10-23T09:55:21.199Z,99380.60
2022-10-23T09:57:50.144Z,99384.60
2022-10-23T10:00:23.076Z,99377.60
2022-10-23T10:03:06.669Z,99381.40
2022-10-23T10:05:41.945Z,99380.80
2022-10-23T10:08:21.737Z,99373.40
2022-10-23T10:11:25.389Z,99376.00
2022-10-23T10:14:23.877Z,99375.80
2022-10-23T10:17:20.667Z,99370.00
2022-10-23T10:20:28.545Z,99370.80
2022-10-23T10:23:41.571Z,99371.00
2022-10-23T10:26:42.422Z,99360.80
2022-10-23T10:30:00.052Z,99352.40
2022-10-23T10:32:38.916Z,99354.20
2022-10-23T10:35:24.771Z,99358.40
2022-10-23T10:38:22.269Z,99347.80
2022-10-23T10:41:20.269Z,99342.20
2022-10-23T10:44:25.024Z,99334.60
2022-10-23T10:46:59.779Z,99329.60
2022-10-23T10:49:55.674Z,99327.20
2022-10-23T10:52:35.884Z,99338.40
2022-10-23T10:55:41.659Z,99339.00
2022-10-23T10:58:36.446Z,99333.60
2022-10-23T11:01:17.405Z,99327.80
2022-10-23T11:03:57.397Z,99325.80
2022-10-23T11:06:31.969Z,99311.60
2022-10-23T11:09:20.281Z,99307.60
2022-10-23T11:11:49.242Z,99306.20
2022-10-23T11:14:21.086Z,99308.40
2022-10-23T11:16:57.576Z,99298.60
2022-10-23T11:19:34.195Z,99299.60
2022-10-23T11:22:16.678Z,99289.60
2022-10-23T11:25:18.719Z,99290.20
2022-10-23T11:28:10.538Z,99290.60
2022-10-23T11:31:00.523Z,99292.60
2022-10-23T11:33:33.769Z,99291.60
2022-10-23T11:36:38.463Z,99290.20
2022-10-23T11:39:22.096Z,99290.40
2022-10-23T11:42:04.955Z,99279.00
2022-10-23T11:44:50.728Z,99267.20
2022-10-23T11:47:42.849Z,99264.00
2022-10-23T11:50:10.456Z,99258.60
2022-10-23T11:53:15.640Z,99250.20
2022-10-23T11:56:25.625Z,99247.40
2022-10-23T11:58:57.156Z,99244.40
2022-10-23T12:01:30.565Z,99240.20
2022-10-23T12:04:14.205Z,99236.80
2022-10-23T12:06:49.711Z,99239.60
2022-10-23T12:09:36.211Z,99230.20
2022-10-23T12:12:09.986Z,99230.20
2022-10-23T12:14:50.950Z,99237.20
2022-10-23T12:17:35.970Z,99233.80
2022-10-23T12:20:25.729Z,99236.00
2022-10-23T12:23:15.846Z,99230.40
2022-10-23T12:26:13.421Z,99235.20
2022-10-23T12:29:00.103Z,99231.80
2022-10-23T12:31:58.442Z,99221.40
2022-10-23T12:34:48.058Z,99220.00
2022-10-23T12:37:37.739Z,99221.20
2022-10-23T12:40:10.154Z,99220.00
2022-10-23T12:42:38.802Z,99219.00
2022-10-23T12:45:20.003Z,99211.60
2022-10-23T12:47:50.496Z,99205.20
2022-10-23T12:50:26.621Z,99203.80
2022-10-23T12:53:03.240Z,99198.00
2022-10-23T12:58:35.301Z,99187.80
2022-10-23T13:01:06.964Z,99190.40
2022-10-23T13:03:35.972Z,99188.40
2022-10-23T13:06:05.575Z,99184.80
2022-10-23T13:08:41.221Z,99182.00
2022-10-23T13:11:16.970Z,99188.40
2022-10-23T13:13:44.888Z,99185.80
2022-10-23T13:16:24.005Z,99181.60
2022-10-23T13:18:52.182Z,99186.80
2022-10-23T13:21:28.484Z,99188.00
2022-10-23T13:23:56.912Z,99190.20
2022-10-23T13:26:45.077Z,99188.00
2022-10-23T13:29:28.616Z,99185.00
2022-10-23T13:31:57.389Z,99171.00
2022-10-23T13:34:30.858Z,99166.20
2022-10-23T13:37:26.816Z,99167.20
2022-10-23T13:40:03.083Z,99166.60
2022-10-23T13:42:31.034Z,99161.00
2022-10-23T13:44:58.742Z,99157.40
2022-10-23T13:47:26.413Z,99163.20
2022-10-23T13:49:54.030Z,99164.80
2022-10-23T13:52:23.827Z,99165.40
2022-10-23T13:54:51.432Z,99154.80
2022-10-23T13:57:19.108Z,99153.60
2022-10-23T13:59:46.789Z,99151.40
2022-10-23T14:02:21.913Z,99150.00
2022-10-23T14:04:51.159Z,99151.00
2022-10-23T14:07:19.004Z,99151.00
2022-10-23T14:09:46.643Z,99150.20
2022-10-23T14:12:14.247Z,99145.00
2022-10-23T14:14:41.798Z,99150.80
2022-10-23T14:17:09.706Z,99152.60
2022-10-23T14:22:09.996Z,99153.20
2022-10-23T14:24:38.135Z,99155.20
2022-10-23T14:27:05.817Z,99157.60
2022-10-23T14:29:33.480Z,99158.20
2022-10-23T14:32:01.173Z,99155.00
2022-10-23T14:34:28.865Z,99155.60
2022-10-23T14:37:08.204Z,99154.80
2022-10-23T14:39:36.805Z,99153.60
2022-10-23T14:42:04.577Z,99151.40
2022-10-23T14:44:32.229Z,99148.60
2022-10-23T14:47:00.103Z,99145.60
2022-10-23T14:49:27.724Z,99142.80
2022-10-23T14:51:55.418Z,99141.80
2022-10-23T14:54:23.123Z,99140.60
2022-10-23T14:56:50.911Z,99142.40
2022-10-23T14:59:18.600Z,99140.00
2022-10-23T15:01:48.397Z,99132.40
2022-10-23T15:04:16.624Z,99138.00
2022-10-23T15:06:47.191Z,99136.00
2022-10-23T15:09:15.727Z,99133.20
2022-10-23T15:11:43.482Z,99130.20
2022-10-23T15:14:11.307Z,99133.40
2022-10-23T15:16:41.777Z,99133.80
2022-10-23T15:19:18.681Z,99136.80
2022-10-23T15:21:48.377Z,99137.60
2022-10-23T15:24:17.486Z,99135.00
2022-10-23T15:26:45.354Z,99138.80
2022-10-23T15:29:14.919Z,99136.20
2022-10-23T15:31:53.697Z,99134.40
2022-10-23T15:34:26.939Z,99139.40
2022-10-23T15:36:57.189Z,99136.40
2022-10-23T15:39:28.635Z,99132.60
2022-10-23T15:41:57.073Z,99135.60
2022-10-23T15:44:28.737Z,99137.60
2022-10-23T15:46:57.482Z,99137.20
2022-10-23T15:49:27.334Z,99135.20
2022-10-23T15:51:56.418Z,99139.60
2022-10-23T15:54:26.029Z,99141.40
2022-10-23T15:56:56.027Z,99144.80
2022-10-23T15:59:26.134Z,99147.60
2022-10-23T16:01:54.162Z,99142.80
2022-10-23T16:04:22.052Z,99147.80
2022-10-23T16:06:50.153Z,99147.60
2022-10-23T16:09:17.804Z,99150.00
2022-10-23T16:11:45.797Z,99148.00
2022-10-23T16:14:16.700Z,99150.00
2022-10-23T16:16:44.693Z,99144.20
2022-10-23T16:19:12.876Z,99145.20
2022-10-23T16:21:41.745Z,99146.20
2022-10-23T16:24:09.998Z,99150.20
2022-10-23T16:26:38.912Z,99146.80
2022-10-23T16:29:09.342Z,99149.80
2022-10-23T16:31:37.536Z,99145.60
2022-10-23T16:34:06.872Z,99145.00
2022-10-23T16:36:38.887Z,99148.40
2022-10-23T16:39:09.425Z,99152.00
2022-10-23T16:41:37.111Z,99152.00
2022-10-23T16:44:05.633Z,99150.60
2022-10-23T16:46:35.425Z,99151.40
2022-10-23T16:49:03.367Z,99150.20
2022-10-23T16:51:31.728Z,99152.80
2022-10-23T16:54:00.134Z,99151.00
2022-10-23T16:56:29.633Z,99157.40
2022-10-23T17:01:33.635Z,99164.00
2022-10-23T17:04:01.401Z,99166.60
2022-10-23T17:06:32.410Z,99173.00
2022-10-23T17:09:02.392Z,99180.80
2022-10-23T17:11:40.148Z,99183.80
2022-10-23T17:14:14.110Z,99179.00
2022-10-23T17:16:51.650Z,99173.20
2022-10-23T17:19:43.665Z,99174.00
2022-10-23T17:22:12.638Z,99179.80
2022-10-23T17:24:44.131Z,99176.60
2022-10-23T17:27:13.879Z,99172.60
2022-10-23T17:29:41.460Z,99166.00
2022-10-23T17:32:09.156Z,99167.00
2022-10-23T17:34:37.089Z,99168.80
2022-10-23T17:37:05.404Z,99162.20
2022-10-23T17:39:33.052Z,99157.60
2022-10-23T17:42:00.676Z,99155.00
2022-10-23T17:44:29.156Z,99149.40
2022-10-23T17:46:56.923Z,99150.80
2022-10-23T17:49:25.525Z,99145.40
2022-10-23T17:51:56.631Z,99145.40
2022-10-23T17:54:26.456Z,99141.60
2022-10-23T17:56:55.717Z,99147.40
2022-10-23T17:59:24.024Z,99146.00
2022-10-23T18:01:51.744Z,99142.80
2022-10-23T18:04:20.595Z,99141.20
2022-10-23T18:06:52.782Z,99137.20
2022-10-23T18:09:22.568Z,99137.80
2022-10-23T18:11:51.669Z,99132.60
2022-10-23T18:14:21.629Z,99131.20
2022-10-23T18:16:51.045Z,99131.60
2022-10-23T18:19:19.865Z,99137.80
2022-10-23T18:21:48.861Z,99142.60
2022-10-23T18:24:17.718Z,99141.00
2022-10-23T18:26:47.938Z,99138.00
2022-10-23T18:29:17.732Z,99142.20
2022-10-23T18:31:48.330Z,99136.80
2022-10-23T18:34:24.851Z,99140.80
2022-10-23T18:36:54.905Z,99141.00
2022-10-23T18:39:25.645Z,99137.80
2022-10-23T18:41:57.693Z,99136.00
2022-10-23T18:44:29.186Z,99128.80
2022-10-23T18:46:59.640Z,99121.40
2022-10-23T18:49:28.723Z,99111.40
2022-10-23T18:51:58.299Z,99104.60
2022-10-23T18:54:26.220Z,99102.80
2022-10-23T18:56:53.830Z,99099.20
2022-10-23T18:59:21.740Z,99098.80
2022-10-23T19:01:50.601Z,99107.20
2022-10-23T19:04:19.375Z,99108.40
2022-10-23T19:06:49.850Z,99104.80
2022-10-23T19:09:18.886Z,99104.80
2022-10-23T19:11:46.948Z,99108.40
2022-10-23T19:14:14.863Z,99109.00
2022-10-23T19:16:59.985Z,99110.20
2022-10-23T19:19:53.513Z,99103.20
2022-10-23T19:22:22.793Z,99101.00
2022-10-23T19:25:07.404Z,99101.40
2022-10-23T19:27:35.068Z,99103.60
2022-10-23T19:30:06.612Z,99101.40
2022-10-23T19:32:34.912Z,99092.60
2022-10-23T19:35:02.616Z,99091.80
2022-10-23T19:37:30.255Z,99098.40
2022-10-23T19:39:57.884Z,99108.80
2022-10-23T19:42:25.575Z,99116.40
2022-10-23T19:44:54.143Z,99112.00
2022-10-23T19:47:21.692Z,99104.20
2022-10-23T19:49:51.785Z,99102.80
2022-10-23T19:52:22.201Z,99099.80
2022-10-23T19:54:50.194Z,99096.40
2022-10-23T19:57:33.820Z,99093.00
2022-10-23T20:00:02.111Z,99088.80
2022-10-23T20:02:30.224Z,99078.60
2022-10-23T20:04:58.043Z,99076.00
2022-10-23T20:07:25.658Z,99077.00
2022-10-23T20:09:53.321Z,99072.80
2022-10-23T20:12:20.979Z,99074.00
2022-10-23T20:14:49.673Z,99066.60
2022-10-23T20:17:17.540Z,99054.80
2022-10-23T20:19:45.293Z,99050.60
2022-10-23T20:22:12.980Z,99049.00
2022-10-23T20:24:42.331Z,99057.40
2022-10-23T20:27:10.399Z,99056.20
2022-10-23T20:29:38.175Z,99047.20
2022-10-23T20:32:05.783Z,99047.60
2022-10-23T20:34:33.856Z,99054.00
2022-10-23T20:37:01.453Z,99064.80
2022-10-23T20:39:29.832Z,99065.60
2022-10-23T20:41:57.501Z,99062.00
2022-10-23T20:44:25.119Z,99063.80
2022-10-23T20:46:53.233Z,99055.60
2022-10-23T20:49:21.781Z,99057.80
2022-10-23T20:51:55.708Z,99049.40
2022-10-23T20:54:26.067Z,99047.80
2022-10-23T20:56:53.637Z,99042.00
2022-10-23T20:59:21.361Z,99044.20
2022-10-23T21:01:53.060Z,99042.40
2022-10-23T21:04:26.439Z,99040.20
2022-10-23T21:07:12.818Z,99047.80
2022-10-23T21:09:40.615Z,99041.40
2022-10-23T21:12:09.268Z,99042.20
2022-10-23T21:14:36.999Z,99041.20
2022-10-23T21:17:05.554Z,99041.00
2022-10-23T21:19:33.229Z,99041.80
2022-10-23T21:22:01.197Z,99040.80
2022-10-23T21:24:28.858Z,99039.80
2022-10-23T21:26:56.776Z,99031.80
2022-10-23T21:29:24.396Z,99036.40
2022-10-23T21:31:59.714Z,99031.80
2022-10-23T21:34:28.151Z,99036.60
2022-10-23T21:39:44.558Z,99029.60
2022-10-23T21:42:14.086Z,99021.00
2022-10-23T21:44:41.803Z,99016.80
2022-10-23T21:47:09.979Z,99016.40
2022-10-23T21:49:37.983Z,99009.60
2022-10-23T21:52:06.099Z,99013.40
2022-10-23T21:54:33.683Z,99017.60
2022-10-23T21:57:03.208Z,99009.40
2022-10-23T21:59:33.174Z,99007.40
2022-10-23T22:02:09.380Z,99007.00
2022-10-23T22:04:38.028Z,98992.80
2022-10-23T22:07:06.583Z,98992.00
2022-10-23T22:09:34.571Z,98992.00
2022-10-23T22:12:02.264Z,98982.80
2022-10-23T22:14:30.450Z,98977.20
2022-10-23T22:16:58.399Z,98975.00
2022-10-23T22:19:26.593Z,98979.60
2022-10-23T22:21:54.822Z,98979.40
2022-10-23T22:24:22.860Z,98981.40
2022-10-23T22:26:56.290Z,98983.20
2022-10-23T22:29:27.400Z,98984.80
2022-10-23T22:31:56.490Z,98985.00
2022-10-23T22:34:48.299Z,98983.00
2022-10-23T22:37:16.225Z,98985.60
2022-10-23T22:39:43.860Z,98990.20
2022-10-23T22:42:11.576Z,98984.60
2022-10-23T22:44:39.092Z,98974.60
2022-10-23T22:47:06.985Z,98970.80
2022-10-23T22:49:34.706Z,98967.00
2022-10-23T22:52:02.300Z,98967.80
2022-10-23T22:54:31.566Z,98964.00
2022-10-23T22:56:59.343Z,98961.20
2022-10-23T22:59:27.061Z,98960.20
2022-10-23T23:01:55.409Z,98951.80
2022-10-23T23:04:39.196Z,98958.00
2022-10-23T23:07:12.458Z,98968.20
2022-10-23T23:09:44.131Z,98974.80
2022-10-23T23:12:14.525Z,98967.40
2022-10-23T23:14:43.287Z,98960.00
2022-10-23T23:17:11.780Z,98960.40
2022-10-23T23:19:39.648Z,98956.20
2022-10-23T23:22:07.358Z,98956.80
2022-10-23T23:24:35.036Z,98958.20
2022-10-23T23:27:02.995Z,98965.60
2022-10-23T23:29:31.158Z,98965.20
2022-10-23T23:31:58.822Z,98956.80
2022-10-23T23:34:26.684Z,98947.40
2022-10-23T23:36:54.310Z,98943.60
2022-10-23T23:39:22.019Z,98942.20
2022-10-23T23:41:49.764Z,98937.80
2022-10-23T23:44:17.283Z,98934.60
2022-10-23T23:46:44.844Z,98931.00
2022-10-23T23:49:12.443Z,98927.40
2022-10-23T23:51:40.104Z,98930.60
2022-10-23T23:54:07.744Z,98935.60
2022-10-23T23:56:35.382Z,98945.20
2022-10-23T23:59:03.004Z,98948.60
